KCCY/CCY METAR and TAF weather

Enter ICAO airport designator
Station Type Date Time Source
KCCY METAR 2021/04/14 20:55 UTC NOAA

KCCY 142055Z AUTO 33018KT 10SM BKN033 OVC044 07/M01 A3013 RMK AO2


Station Type Date Time Source
KCCY Decoded METAR 2021/04/14 20:55 UTC NOAA

Charles City, IA, United States (KCCY) 43-04N 092-37W
Apr 14, 2021 - 04:55 PM EDT / 2021.04.14 2055 UTC
Wind: from the NNW (330 degrees) at 21 MPH (18 KT):0
Visibility: 10 mile(s):0
Sky conditions: overcast
Temperature: 44 F (7 C)
Dew Point: 30 F (-1 C)
Relative Humidity: 56%
Pressure (altimeter): 30.13 in. Hg (1020 hPa)
ob: KCCY 142055Z AUTO 33018KT 10SM BKN033 OVC044 07/M01 A3013 RMK AO2
cycle: 21

Station Type Date Time Source
KCCY TAF UTC NOAA

Error!

Example: see airport list